createdAt,value
2023-01-15T00:04:37.789Z,7.5
2023-01-15T00:09:45.784Z,7.4
2023-01-15T00:14:52.165Z,7.4
2023-01-15T00:20:00.150Z,7.3
2023-01-15T00:25:06.525Z,7.2
2023-01-15T00:30:13.243Z,7.2
2023-01-15T00:35:19.776Z,7.1
2023-01-15T00:40:26.188Z,7.1
2023-01-15T00:45:32.642Z,7.1
2023-01-15T00:50:39.028Z,7.0
2023-01-15T01:00:53.632Z,7.0
2023-01-15T01:06:44.671Z,6.9
2023-01-15T01:12:19.156Z,6.9
2023-01-15T01:16:36.462Z,6.9
2023-01-15T01:21:23.045Z,6.8
2023-01-15T01:26:54.779Z,6.8
2023-01-15T01:31:55.998Z,6.8
2023-01-15T01:36:42.317Z,6.7
2023-01-15T01:41:48.710Z,6.7
2023-01-15T01:46:55.099Z,6.7
2023-01-15T01:52:01.462Z,6.6
2023-01-15T01:58:53.403Z,6.6
2023-01-15T02:04:44.976Z,6.6
2023-01-15T02:09:07.233Z,6.6
2023-01-15T02:14:13.749Z,6.6
2023-01-15T02:25:53.364Z,6.6
2023-01-15T02:31:00.787Z,6.6
2023-01-15T02:41:13.549Z,6.5
2023-01-15T02:47:32.061Z,6.5
2023-01-15T02:51:26.329Z,6.5
2023-01-15T02:56:34.029Z,6.4
2023-01-15T03:06:46.803Z,6.4
2023-01-15T03:12:17.214Z,6.3
2023-01-15T03:16:59.731Z,6.3
2023-01-15T03:22:06.126Z,6.3
2023-01-15T03:27:36.205Z,6.2
2023-01-15T03:32:22.561Z,6.2
2023-01-15T03:37:28.925Z,6.2
2023-01-15T03:42:59.357Z,6.2
2023-01-15T03:47:41.819Z,6.1
2023-01-15T03:52:48.293Z,6.1
2023-01-15T03:57:54.962Z,6.1
2023-01-15T04:03:03.641Z,6.0
2023-01-15T04:08:09.924Z,6.0
2023-01-15T04:13:16.375Z,6.0
2023-01-15T04:18:22.762Z,6.0
2023-01-15T04:28:39.524Z,5.9
2023-01-15T04:33:31.862Z,5.9
2023-01-15T04:38:52.301Z,5.8
2023-01-15T04:43:54.438Z,5.8
2023-01-15T04:49:21.849Z,5.7
2023-01-15T04:53:58.182Z,5.7
2023-01-15T04:59:16.163Z,5.7
2023-01-15T05:04:22.609Z,5.7
2023-01-15T05:09:28.968Z,5.7
2023-01-15T05:20:50.886Z,5.6
2023-01-15T05:25:58.837Z,5.6
2023-01-15T05:31:05.401Z,5.6
2023-01-15T05:36:35.882Z,5.6
2023-01-15T05:41:18.316Z,5.6
2023-01-15T05:46:24.729Z,5.6
2023-01-15T05:51:31.632Z,5.6
2023-01-15T05:56:38.012Z,5.6
2023-01-15T06:01:44.402Z,5.6
2023-01-15T06:06:50.804Z,5.5
2023-01-15T06:12:21.203Z,5.6
2023-01-15T06:17:06.520Z,5.5
2023-01-15T06:22:34.050Z,5.5
2023-01-15T06:28:29.335Z,5.5
2023-01-15T06:33:35.729Z,5.5
2023-01-15T06:37:30.243Z,5.5
2023-01-15T06:42:57.212Z,5.5
2023-01-15T06:47:43.567Z,5.4
2023-01-15T06:54:26.410Z,5.4
2023-01-15T06:59:03.815Z,5.4
2023-01-15T07:04:20.227Z,5.5
2023-01-15T07:09:26.600Z,5.5
2023-01-15T07:14:32.979Z,5.4
2023-01-15T07:19:39.521Z,5.4
2023-01-15T07:24:45.911Z,5.4
2023-01-15T07:29:42.258Z,5.4
2023-01-15T07:34:58.652Z,5.4
2023-01-15T07:40:05.035Z,5.3
2023-01-15T07:45:11.619Z,5.3
2023-01-15T07:50:18.000Z,5.3
2023-01-15T07:55:24.418Z,5.2
2023-01-15T08:01:05.955Z,5.2
2023-01-15T08:06:13.242Z,5.2
2023-01-15T08:11:19.633Z,5.2
2023-01-15T08:16:26.167Z,5.2
2023-01-15T08:21:32.411Z,5.2
2023-01-15T08:26:38.810Z,5.2
2023-01-15T08:31:45.269Z,5.2
2023-01-15T08:36:41.559Z,5.1
2023-01-15T08:41:57.948Z,5.2
2023-01-15T08:47:24.365Z,5.2
2023-01-15T08:52:10.719Z,5.2
2023-01-15T08:57:17.113Z,5.2
2023-01-15T09:02:23.497Z,5.2
2023-01-15T09:07:33.512Z,5.2
2023-01-15T09:12:39.956Z,5.2
2023-01-15T09:17:46.309Z,5.3
2023-01-15T09:22:52.673Z,5.3
2023-01-15T09:43:18.164Z,5.6
2023-01-15T09:48:48.747Z,5.6
2023-01-15T09:53:31.131Z,5.7
2023-01-15T09:58:37.539Z,5.7
2023-01-15T10:03:43.919Z,5.8
2023-01-15T10:08:50.295Z,5.8
2023-01-15T10:13:56.689Z,5.9
2023-01-15T10:19:03.068Z,6.0
2023-01-15T10:24:09.600Z,6.1
2023-01-15T10:29:15.980Z,6.1
2023-01-15T10:34:22.361Z,6.2
2023-01-15T10:39:28.751Z,6.2
2023-01-15T10:44:35.118Z,6.3
2023-01-15T10:49:40.505Z,6.3
2023-01-15T10:55:11.970Z,6.4
2023-01-15T10:59:54.388Z,6.5
2023-01-15T11:05:20.826Z,6.5
2023-01-15T11:15:53.054Z,6.6
2023-01-15T11:21:24.380Z,6.7
2023-01-15T11:26:06.730Z,6.7
2023-01-15T11:31:13.151Z,6.8
2023-01-15T11:36:09.644Z,6.8
2023-01-15T11:41:26.152Z,6.9
2023-01-15T11:46:32.701Z,6.8
2023-01-15T11:51:39.130Z,6.9
2023-01-15T11:56:45.537Z,6.9
2023-01-15T12:01:51.892Z,6.9
2023-01-15T12:06:58.387Z,7.0
2023-01-15T12:11:54.729Z,7.1
2023-01-15T12:17:12.698Z,7.2
2023-01-15T12:22:19.149Z,7.4
2023-01-15T12:32:30.917Z,7.6
2023-01-15T12:37:38.299Z,7.6
2023-01-15T12:42:34.806Z,7.6
2023-01-15T12:47:51.414Z,7.6
2023-01-15T12:52:58.318Z,7.6
2023-01-15T12:58:08.714Z,7.5
2023-01-15T13:03:11.102Z,7.5
2023-01-15T13:08:17.470Z,7.5
2023-01-15T13:13:23.847Z,7.5
2023-01-15T13:18:30.235Z,7.4
2023-01-15T13:23:36.632Z,7.3
2023-01-15T13:29:07.046Z,7.2
2023-01-15T13:33:39.493Z,7.1
2023-01-15T13:38:55.898Z,7.0
2023-01-15T13:44:02.285Z,6.9
2023-01-15T13:48:58.676Z,6.8
2023-01-15T13:54:15.074Z,6.8
2023-01-15T13:59:25.016Z,6.7
2023-01-15T14:04:31.395Z,6.6
2023-01-15T14:14:48.123Z,6.4
2023-01-15T14:21:08.234Z,6.4
2023-01-15T14:25:02.437Z,6.3
2023-01-15T14:30:12.411Z,6.3
2023-01-15T14:35:08.767Z,6.3
2023-01-15T14:40:25.167Z,6.2
2023-01-15T14:45:31.598Z,6.1
2023-01-15T14:50:46.609Z,6.1
2023-01-15T14:55:48.991Z,6.1
2023-01-15T15:00:56.089Z,6.1
2023-01-15T15:11:08.698Z,6.1
2023-01-15T15:17:15.378Z,6.0
2023-01-15T15:21:21.627Z,6.0
2023-01-15T15:26:28.018Z,6.0
2023-01-15T15:37:54.980Z,5.9
2023-01-15T15:43:02.370Z,5.9
2023-01-15T15:48:08.746Z,5.9
2023-01-15T15:53:15.118Z,5.8
2023-01-15T15:58:21.627Z,5.8
2023-01-15T16:03:28.037Z,5.8
2023-01-15T16:08:34.419Z,5.7
2023-01-15T16:13:30.755Z,5.7
2023-01-15T16:18:46.165Z,5.7
2023-01-15T16:23:53.534Z,5.6
2023-01-15T16:34:06.298Z,5.6
2023-01-15T16:39:12.662Z,5.6
2023-01-15T16:44:19.029Z,5.5
2023-01-15T16:49:25.404Z,5.5
2023-01-15T16:54:31.887Z,5.5
2023-01-15T16:59:42.195Z,5.4
2023-01-15T17:04:44.580Z,5.4
2023-01-15T17:10:14.980Z,5.4
2023-01-15T17:14:57.303Z,5.4
2023-01-15T17:20:03.793Z,5.3
2023-01-15T17:25:00.360Z,5.3
2023-01-15T17:30:06.656Z,5.3
2023-01-15T17:35:13.027Z,5.3
2023-01-15T17:40:53.467Z,5.2
2023-01-15T17:45:35.798Z,5.3
2023-01-15T17:55:48.723Z,5.2
2023-01-15T18:00:55.183Z,5.2
2023-01-15T18:06:01.584Z,5.3
2023-01-15T18:10:57.985Z,5.3
2023-01-15T18:16:14.505Z,5.3
2023-01-15T18:22:36.509Z,5.3
2023-01-15T18:26:30.755Z,5.3
2023-01-15T18:32:01.182Z,5.3
2023-01-15T18:36:47.543Z,5.3
2023-01-15T18:41:49.970Z,5.3
2023-01-15T18:46:56.334Z,5.3
2023-01-15T18:52:02.713Z,5.3
2023-01-15T18:57:09.104Z,5.3
2023-01-15T19:02:05.619Z,5.3
2023-01-15T19:09:43.268Z,5.2
2023-01-15T19:13:38.543Z,5.2
2023-01-15T19:19:04.947Z,5.2
2023-01-15T19:23:41.269Z,5.2
2023-01-15T19:28:57.678Z,5.2
2023-01-15T19:34:31.562Z,5.2
2023-01-15T19:39:10.475Z,5.2
2023-01-15T19:44:16.860Z,5.2
2023-01-15T19:49:47.288Z,5.2
2023-01-15T19:54:29.737Z,5.2
2023-01-15T20:00:10.214Z,5.2
2023-01-15T20:05:17.578Z,5.2
2023-01-15T20:10:24.014Z,5.2
2023-01-15T20:15:30.493Z,5.1
2023-01-15T20:20:36.867Z,5.1
2023-01-15T20:25:43.249Z,5.1
2023-01-15T20:30:49.627Z,5.1
2023-01-15T20:35:56.004Z,5.1
2023-01-15T20:41:02.452Z,5.0
2023-01-15T20:46:08.979Z,5.0
2023-01-15T20:51:15.295Z,5.0
2023-01-15T20:56:21.694Z,5.0
2023-01-15T21:03:01.288Z,5.0
2023-01-15T21:07:44.627Z,5.0
2023-01-15T21:12:51.026Z,5.0
2023-01-15T21:17:57.384Z,5.0
2023-01-15T21:28:10.167Z,5.0
2023-01-15T21:33:15.929Z,5.0
2023-01-15T21:38:13.323Z,5.0
2023-01-15T21:49:34.293Z,4.9
2023-01-15T21:54:17.625Z,4.9
2023-01-15T21:59:24.016Z,4.9
2023-01-15T22:09:56.801Z,4.9
2023-01-15T22:20:58.683Z,4.9
2023-01-15T22:26:06.074Z,4.9
2023-01-15T22:31:12.512Z,4.9
2023-01-15T22:36:18.848Z,5.0
2023-01-15T22:41:25.236Z,5.0
2023-01-15T22:47:43.742Z,5.0
2023-01-15T22:51:38.004Z,4.9
2023-01-15T23:01:58.612Z,4.9
2023-01-15T23:06:59.927Z,4.9
2023-01-15T23:12:31.409Z,5.0
2023-01-15T23:17:47.864Z,4.9
2023-01-15T23:24:07.365Z,4.9
2023-01-15T23:28:01.662Z,5.0
2023-01-15T23:33:08.008Z,5.0
2023-01-15T23:38:14.345Z,5.0
2023-01-15T23:43:20.707Z,5.0
2023-01-15T23:48:27.139Z,5.0
2023-01-15T23:53:33.561Z,5.0
2023-01-15T23:59:01.578Z,5.0
